Glassboro, New Jersey
Current Conditions -  °F | °C
As of 1:54 AM on Monday 24 Nov 2014 (Local Time) from KPHL Reporting Station
Moderate Rain Moderate Rain  
Wind Chill: 57°   Ceiling: 700
Heat Index: 57°   Visibility: 2.5mi
Dew Point: 55°   Wind: 9mph
Humidity: 93%   Direction: 120°ESE
Pressure: 29.79"   Gusts: NA
Location:  39.71°N, 75.11°W
Report Text: KPHL 240654Z 12008KT 2 1/2SM RA BR BKN007 BKN013 OVC023 14/13 A2979 RMK AO2 PRESFR SLP088 P0014 T01390128 $
Loading
Personal Weather Stations






























Interactive Weather Map New forecast layout! Learn more

10-Day Weather Forecast

Advertisements
Track Severe Weather on mobile